Time;durP1;ratioP1;P1;durP2;ratioP2;P2;SDS_P1;SDS_P2;PMS_P1;PMS_P2;Temp;Humidity;BMP_temperature;BMP_pressure;BME280_temperature;BME280_humidity;BME280_pressure;Samples;Min_cycle;Max_cycle;Signal;HPM_P1;HPM_P2
2023/04/26 00:01:53;;;;;;;9.65;2.28;;;;;;;6.61;60.70;99977.53;5013090;28;20051;-79
2023/04/26 00:04:20;;;;;;;9.50;2.25;;;;;;;6.60;60.84;99975.84;5012914;28;20438;-79
2023/04/26 00:06:48;;;;;;;8.43;2.30;;;;;;;6.57;60.93;99975.94;5012188;28;20136;-79
2023/04/26 00:09:14;;;;;;;7.55;2.35;;;;;;;6.55;60.94;99981.25;5012924;28;20054;-79
2023/04/26 00:11:41;;;;;;;11.35;2.70;;;;;;;6.54;60.99;99986.56;5012823;28;20514;-79
2023/04/26 00:14:08;;;;;;;6.03;2.38;;;;;;;6.50;61.12;99977.94;5012703;28;20494;-79
2023/04/26 00:16:34;;;;;;;6.97;2.40;;;;;;;6.47;61.12;99978.91;5012253;28;20072;-80
2023/04/26 00:19:01;;;;;;;6.72;2.47;;;;;;;6.45;61.20;99979.88;5012665;28;20072;-79
2023/04/26 00:21:28;;;;;;;5.50;2.15;;;;;;;6.41;61.08;99973.03;5013073;28;20064;-79
2023/04/26 00:23:54;;;;;;;10.02;2.70;;;;;;;6.39;61.01;99976.59;5012912;28;20383;-79
2023/04/26 00:26:21;;;;;;;6.78;2.60;;;;;;;6.37;61.44;99978.41;5012142;28;20045;-80
2023/04/26 00:28:48;;;;;;;11.75;2.50;;;;;;;6.35;61.37;99985.44;5012208;28;20056;-79
2023/04/26 00:31:15;;;;;;;8.30;3.00;;;;;;;6.33;61.23;99984.66;5012579;28;20053;-79
2023/04/26 00:33:43;;;;;;;10.00;2.55;;;;;;;6.30;61.53;99987.38;5012296;28;20060;-79
2023/04/26 00:36:09;;;;;;;8.98;2.85;;;;;;;6.29;61.38;99988.28;5012261;28;20136;-79
2023/04/26 00:38:36;;;;;;;7.13;2.03;;;;;;;6.27;61.80;99981.41;5012193;28;20096;-79
2023/04/26 00:41:03;;;;;;;7.55;2.55;;;;;;;6.25;61.70;99978.84;5027461;28;20049;-79
2023/04/26 00:43:29;;;;;;;10.05;3.35;;;;;;;6.25;61.68;99978.84;5032246;28;20054;-79
2023/04/26 00:45:56;;;;;;;11.48;3.38;;;;;;;6.23;61.71;99980.66;5031552;28;20041;-79
2023/04/26 00:48:23;;;;;;;7.28;2.50;;;;;;;6.20;61.67;99979.00;5030425;28;20053;-79
2023/04/26 00:50:49;;;;;;;6.47;2.83;;;;;;;6.17;61.80;99967.81;5032071;28;20107;-79
2023/04/26 00:53:16;;;;;;;8.57;2.88;;;;;;;6.15;62.00;99972.22;5032015;28;20068;-79
2023/04/26 00:55:44;;;;;;;8.52;3.08;;;;;;;6.13;62.01;99964.44;5031228;28;20176;-79
2023/04/26 00:58:10;;;;;;;10.43;3.30;;;;;;;6.10;62.05;99970.63;5030978;28;20414;-79
2023/04/26 01:00:37;;;;;;;7.55;2.70;;;;;;;6.11;61.99;99976.72;5031685;28;20211;-79
2023/04/26 01:03:04;;;;;;;11.00;3.33;;;;;;;6.07;61.93;99970.75;5031633;28;20055;-79
2023/04/26 01:05:31;;;;;;;8.88;3.35;;;;;;;6.06;61.96;99968.19;5031392;28;20053;-79
2023/04/26 01:07:58;;;;;;;8.98;3.53;;;;;;;6.04;62.05;99976.06;5031409;28;20298;-79
2023/04/26 01:10:27;;;;;;;13.25;3.70;;;;;;;6.03;62.11;99974.38;5031535;28;20049;-78
2023/04/26 01:12:54;;;;;;;5.68;2.72;;;;;;;6.02;62.22;99969.16;5031593;28;20498;-79
2023/04/26 01:15:21;;;;;;;12.75;3.50;;;;;;;6.00;62.14;99977.06;5030993;28;20060;-80
2023/04/26 01:17:48;;;;;;;8.50;3.80;;;;;;;5.99;62.35;99976.19;5031272;28;20041;-79
2023/04/26 01:20:15;;;;;;;8.65;3.55;;;;;;;6.00;62.55;99984.88;5031444;28;20049;-79
2023/04/26 01:22:41;;;;;;;7.65;3.00;;;;;;;5.98;62.32;99976.25;5030200;28;20132;-79
2023/04/26 01:25:11;;;;;;;6.18;2.80;;;;;;;5.96;62.43;99972.84;5030982;28;20414;-79
2023/04/26 01:27:38;;;;;;;9.07;3.15;;;;;;;5.95;62.59;99971.97;5031263;28;20049;-79
2023/04/26 01:30:05;;;;;;;7.30;3.13;;;;;;;5.94;62.31;99977.28;5031516;28;20095;-79
2023/04/26 01:32:31;;;;;;;13.48;3.10;;;;;;;5.92;62.24;99977.31;5031564;28;20119;-79
2023/04/26 01:34:59;;;;;;;8.52;2.92;;;;;;;5.90;62.56;99978.28;5030970;28;20111;-79
2023/04/26 01:37:26;;;;;;;10.27;2.72;;;;;;;5.87;62.45;99974.84;5031032;28;20450;-79
2023/04/26 01:39:52;;;;;;;10.43;3.28;;;;;;;5.87;62.40;99974.03;4641598;22;20111;-78
2023/04/26 01:42:19;;;;;;;6.60;2.80;;;;;;;5.84;62.54;99974.13;5031249;28;20050;-77
2023/04/26 01:44:45;;;;;;;10.73;2.80;;;;;;;5.83;62.64;99981.09;5029500;28;20473;-79
2023/04/26 01:47:12;;;;;;;8.43;3.10;;;;;;;5.81;62.81;99967.22;5030625;28;20077;-78
2023/04/26 01:49:38;;;;;;;9.35;3.30;;;;;;;5.79;62.76;99966.41;5031111;28;20053;-79
2023/04/26 01:52:05;;;;;;;8.48;3.50;;;;;;;5.77;62.98;99970.84;5030843;28;20129;-77
2023/04/26 01:54:32;;;;;;;9.70;2.90;;;;;;;5.76;62.81;99968.28;5030906;28;20132;-77
2023/04/26 01:56:58;;;;;;;5.90;3.30;;;;;;;5.75;63.03;99970.03;5025078;28;20131;-78
2023/04/26 01:59:25;;;;;;;6.68;2.65;;;;;;;5.73;62.92;99970.09;5030264;28;20049;-79
2023/04/26 02:01:52;;;;;;;16.55;4.50;;;;;;;5.73;63.18;99977.09;5030517;28;20137;-77
2023/04/26 02:04:19;;;;;;;9.65;2.78;;;;;;;5.74;62.98;99968.34;5030454;28;20103;-78
2023/04/26 02:06:45;;;;;;;6.88;3.03;;;;;;;5.73;62.92;99969.25;5029650;28;20057;-78
2023/04/26 02:09:12;;;;;;;10.55;3.35;;;;;;;5.74;62.93;99976.16;5030540;28;20052;-77
2023/04/26 02:11:39;;;;;;;6.57;3.00;;;;;;;5.74;62.98;99977.03;5030489;28;20046;-81
2023/04/26 02:14:05;;;;;;;7.68;3.13;;;;;;;5.73;62.90;99977.09;5030863;28;20077;-78
2023/04/26 02:16:32;;;;;;;9.93;2.80;;;;;;;5.71;62.83;99971.03;5030349;28;20051;-77
2023/04/26 02:18:59;;;;;;;6.15;3.03;;;;;;;5.71;62.96;99979.75;5030845;28;20097;-81
2023/04/26 02:21:27;;;;;;;7.57;3.25;;;;;;;5.70;63.17;99971.97;5029431;28;20128;-78
2023/04/26 02:23:53;;;;;;;10.02;2.83;;;;;;;5.68;63.11;99969.38;5030417;28;20498;-78
2023/04/26 02:26:20;;;;;;;7.55;3.03;;;;;;;5.67;63.24;99982.50;5029980;28;20457;-80
2023/04/26 02:28:46;;;;;;;8.00;3.20;;;;;;;5.65;63.56;99974.75;5030039;28;20054;-78
2023/04/26 02:31:13;;;;;;;7.10;2.80;;;;;;;5.65;63.31;99976.47;5030789;28;20049;-78
2023/04/26 02:33:40;;;;;;;7.15;3.30;;;;;;;5.64;63.32;99980.84;5030692;28;20049;-79
2023/04/26 02:36:06;;;;;;;8.35;2.95;;;;;;;5.63;63.32;99979.13;5030305;28;20144;-78
2023/04/26 02:38:35;;;;;;;10.93;3.30;;;;;;;5.63;63.43;99971.31;5028612;28;20111;-79
2023/04/26 02:41:03;;;;;;;9.75;3.47;;;;;;;5.63;63.33;99979.13;5028516;28;20386;-78
2023/04/26 02:43:29;;;;;;;10.63;3.75;;;;;;;5.63;63.52;99980.88;5030237;28;20060;-79
2023/04/26 02:45:57;;;;;;;7.90;3.05;;;;;;;5.61;63.21;99976.56;5018832;28;20087;-79
2023/04/26 02:48:24;;;;;;;6.68;2.92;;;;;;;5.60;63.36;99977.50;5028422;28;20498;-78
2023/04/26 02:50:52;;;;;;;8.25;3.40;;;;;;;5.59;63.17;99982.75;5030261;28;20050;-78
2023/04/26 02:53:18;;;;;;;11.32;3.33;;;;;;;5.58;63.33;99981.06;5030156;28;20494;-77
2023/04/26 02:55:45;;;;;;;10.43;3.45;;;;;;;5.57;63.38;99976.75;5030064;28;20058;-78
2023/04/26 02:58:12;;;;;;;11.07;3.70;;;;;;;5.55;63.39;99982.00;5029929;28;20049;-80
2023/04/26 03:00:44;;;;;;;8.45;3.35;;;;;;;5.54;63.36;99982.06;5030242;28;20124;-77
2023/04/26 03:03:11;;;;;;;9.30;3.38;;;;;;;5.52;63.40;99987.31;5030065;28;20045;-78
2023/04/26 03:05:37;;;;;;;9.35;3.35;;;;;;;5.52;63.61;99989.94;5029616;28;20490;-80
2023/04/26 03:08:04;;;;;;;8.77;3.47;;;;;;;5.52;63.64;99982.09;5029760;28;20065;-78
2023/04/26 03:10:31;;;;;;;12.48;3.33;;;;;;;5.50;63.66;99970.00;5030315;28;20057;-78
2023/04/26 03:12:57;;;;;;;7.22;3.45;;;;;;;5.50;63.82;99970.88;5030261;28;20498;-80
2023/04/26 03:15:24;;;;;;;7.13;3.15;;;;;;;5.48;63.61;99978.75;5028395;28;20148;-80
2023/04/26 03:17:51;;;;;;;8.40;3.15;;;;;;;5.46;63.75;99980.53;5029649;28;20455;-78
2023/04/26 03:20:18;;;;;;;7.63;3.95;;;;;;;5.45;63.81;99985.81;5031572;28;20053;-79
2023/04/26 03:22:45;;;;;;;8.32;3.70;;;;;;;5.43;63.55;99980.66;5032587;28;20085;-79
2023/04/26 03:25:12;;;;;;;7.07;3.53;;;;;;;5.42;63.78;99976.31;5033065;28;20064;-79
2023/04/26 03:27:38;;;;;;;7.00;3.85;;;;;;;5.40;63.78;99979.88;5033332;28;20056;-78
2023/04/26 03:30:06;;;;;;;13.93;3.85;;;;;;;5.39;63.92;99971.22;5033446;28;20088;-78
2023/04/26 03:32:32;;;;;;;11.13;4.40;;;;;;;5.38;63.78;99976.47;5033414;28;20079;-78
2023/04/26 03:34:59;;;;;;;9.93;3.67;;;;;;;5.37;63.82;99969.53;5028477;28;20057;-81
2023/04/26 03:37:26;;;;;;;10.65;3.65;;;;;;;5.33;63.82;99972.25;5022122;28;20056;-78
2023/04/26 03:39:52;;;;;;;8.32;3.63;;;;;;;5.32;63.75;99969.69;5024102;28;20073;-77
2023/04/26 03:42:19;;;;;;;11.40;3.70;;;;;;;5.29;63.87;99968.03;5031245;28;20084;-78
2023/04/26 03:44:46;;;;;;;9.50;3.85;;;;;;;5.28;63.92;99970.69;5032907;28;20057;-78
2023/04/26 03:47:14;;;;;;;9.40;4.15;;;;;;;5.26;64.02;99965.50;5032603;28;20085;-78
2023/04/26 03:49:41;;;;;;;12.50;4.05;;;;;;;5.25;64.10;99976.00;5031715;28;20053;-78
2023/04/26 03:52:08;;;;;;;9.20;3.70;;;;;;;5.24;64.22;99971.69;5032970;28;20161;-79
2023/04/26 03:54:35;;;;;;;13.10;4.28;;;;;;;5.22;64.34;99971.72;5032941;28;20536;-79
2023/04/26 03:57:01;;;;;;;9.88;4.35;;;;;;;5.21;64.24;99970.03;5032107;28;20046;-78
2023/04/26 03:59:28;;;;;;;14.70;4.63;;;;;;;5.19;64.38;99962.25;5031964;28;20128;-78
2023/04/26 04:01:55;;;;;;;12.32;4.28;;;;;;;5.20;64.62;99963.94;5032915;28;20136;-79
2023/04/26 04:04:21;;;;;;;12.27;4.30;;;;;;;5.20;64.38;99965.72;5031768;28;20110;-78
2023/04/26 04:06:48;;;;;;;8.85;3.88;;;;;;;5.20;64.70;99968.34;5030276;28;20053;-81
2023/04/26 04:09:15;;;;;;;7.07;3.90;;;;;;;5.22;64.83;99971.72;5032915;28;20125;-80
2023/04/26 04:11:42;;;;;;;6.22;3.33;;;;;;;5.24;65.21;99969.06;5031503;28;20068;-80
2023/04/26 04:14:08;;;;;;;10.93;3.90;;;;;;;5.24;64.87;99969.94;5032781;28;20049;-79
2023/04/26 04:16:35;;;;;;;9.35;4.25;;;;;;;5.26;64.71;99969.88;5031781;28;20134;-80
2023/04/26 04:19:02;;;;;;;15.18;4.15;;;;;;;5.25;64.85;99974.25;5032518;28;20049;-81
2023/04/26 04:21:28;;;;;;;9.27;4.13;;;;;;;5.26;64.84;99975.09;5032547;28;20053;-79
2023/04/26 04:23:55;;;;;;;8.18;3.70;;;;;;;5.26;64.80;99977.69;5032620;28;20050;-80
2023/04/26 04:26:21;;;;;;;7.57;3.63;;;;;;;5.25;64.95;99969.03;5032023;28;20056;-79
2023/04/26 04:28:48;;;;;;;7.65;4.22;;;;;;;5.26;65.04;99977.69;5030758;28;20045;-80
2023/04/26 04:31:14;;;;;;;7.75;3.70;;;;;;;5.26;65.02;99978.56;5030924;28;20072;-80
2023/04/26 04:33:41;;;;;;;10.32;4.47;;;;;;;5.27;64.73;99975.03;5031210;28;20528;-79
2023/04/26 04:36:08;;;;;;;7.95;4.00;;;;;;;5.28;64.88;99975.91;5031991;28;20054;-79
2023/04/26 04:38:34;;;;;;;9.35;4.15;;;;;;;5.29;65.24;99975.88;5031832;28;20123;-81
2023/04/26 04:41:01;;;;;;;9.35;4.50;;;;;;;5.31;65.22;99976.66;5031986;28;20045;-80
2023/04/26 04:43:27;;;;;;;9.30;4.57;;;;;;;5.34;65.24;99980.94;5032178;28;20076;-80
2023/04/26 04:45:54;;;;;;;10.98;3.88;;;;;;;5.37;65.22;99979.97;5031589;28;20053;-78
2023/04/26 04:48:21;;;;;;;10.05;3.85;;;;;;;5.36;65.32;99979.13;5031810;28;20053;-79
2023/04/26 04:50:48;;;;;;;8.35;4.43;;;;;;;5.38;65.07;99987.75;5032052;28;20046;-80
2023/04/26 04:53:15;;;;;;;7.35;3.40;;;;;;;5.38;65.25;99989.53;5032032;28;20079;-79
2023/04/26 04:55:41;;;;;;;13.63;4.38;;;;;;;5.38;65.24;99985.16;5030119;28;20093;-79
2023/04/26 04:58:08;;;;;;;6.88;3.90;;;;;;;5.39;65.47;99991.22;5046757;28;20103;-80
2023/04/26 05:00:36;;;;;;;10.48;4.00;;;;;;;5.38;65.45;99985.16;5031667;28;20501;-80
2023/04/26 05:03:03;;;;;;;6.78;3.88;;;;;;;5.39;65.35;99983.41;5032325;28;20115;-79
2023/04/26 05:05:30;;;;;;;15.35;4.25;;;;;;;5.40;65.33;99991.19;5031376;28;20133;-79
2023/04/26 05:07:56;;;;;;;8.05;3.83;;;;;;;5.40;65.63;99985.09;5031502;28;20478;-80
2023/04/26 05:10:23;;;;;;;5.38;3.55;;;;;;;5.41;65.53;99989.41;5031758;28;20053;-78
2023/04/26 05:12:49;;;;;;;9.68;4.00;;;;;;;5.44;65.48;99991.94;5031551;28;20052;-79
2023/04/26 05:15:16;;;;;;;10.07;4.20;;;;;;;5.45;65.34;99991.88;5030234;28;20065;-80
2023/04/26 05:17:42;;;;;;;7.65;4.43;;;;;;;5.46;65.55;99990.97;5031301;28;20056;-79
2023/04/26 05:20:10;;;;;;;8.25;3.83;;;;;;;5.47;65.46;99995.28;5031725;28;20049;-80
2023/04/26 05:22:38;;;;;;;8.73;3.83;;;;;;;5.48;65.49;99993.56;5030320;28;20102;-78
2023/04/26 05:25:06;;;;;;;9.15;4.03;;;;;;;5.50;65.46;100002.19;5031108;28;20061;-80
2023/04/26 05:27:33;;;;;;;11.68;4.05;;;;;;;5.50;65.23;99996.97;5030900;28;20053;-80
2023/04/26 05:30:00;;;;;;;12.30;3.90;;;;;;;5.50;65.45;100007.44;5031637;28;20051;-80
2023/04/26 05:32:26;;;;;;;10.82;4.47;;;;;;;5.52;65.49;100002.13;5031407;28;20080;-78
2023/04/26 05:34:53;;;;;;;10.85;4.28;;;;;;;5.52;65.41;100010.81;5029762;28;20509;-81
2023/04/26 05:37:19;;;;;;;11.07;4.75;;;;;;;5.54;65.18;100011.66;5030898;28;20049;-79
2023/04/26 05:39:46;;;;;;;12.98;3.90;;;;;;;5.55;65.81;100009.88;5029845;28;20053;-79
2023/04/26 05:42:12;;;;;;;5.82;4.20;;;;;;;5.57;65.55;100015.91;5030862;28;20049;-78
2023/04/26 05:44:41;;;;;;;9.25;4.78;;;;;;;5.58;65.88;100010.63;5031199;28;20055;-79
2023/04/26 05:47:09;;;;;;;7.13;3.47;;;;;;;5.61;66.08;100014.91;5030391;28;20141;-79
2023/04/26 05:49:36;;;;;;;7.43;4.03;;;;;;;5.64;66.06;100014.78;5031305;28;20045;-82
2023/04/26 05:52:02;;;;;;;14.02;4.63;;;;;;;5.68;66.13;100020.78;5031019;28;20050;-79
2023/04/26 05:54:29;;;;;;;8.57;4.15;;;;;;;5.73;66.12;100026.72;5030926;28;20042;-79
2023/04/26 05:56:55;;;;;;;9.77;3.50;;;;;;;5.78;66.07;100016.09;5030407;28;20076;-78
2023/04/26 05:59:24;;;;;;;9.70;4.53;;;;;;;5.82;66.23;100015.97;5031071;28;20115;-80
2023/04/26 06:01:51;;;;;;;6.78;4.15;;;;;;;5.89;66.32;100019.22;5029885;28;20049;-79
2023/04/26 06:04:17;;;;;;;7.68;3.63;;;;;;;5.94;66.17;100025.13;5030944;28;20049;-80
2023/04/26 06:06:44;;;;;;;7.30;3.85;;;;;;;5.99;66.42;100025.84;5030167;28;20409;-79
2023/04/26 06:09:11;;;;;;;9.98;3.90;;;;;;;6.05;66.39;100032.66;5030915;28;20053;-79
2023/04/26 06:11:37;;;;;;;9.32;4.25;;;;;;;6.12;66.14;100030.69;5030996;28;20072;-81
2023/04/26 06:14:04;;;;;;;9.32;3.85;;;;;;;6.19;66.35;100031.31;5029552;28;20060;-79
2023/04/26 06:16:30;;;;;;;6.63;3.67;;;;;;;6.23;66.00;100033.78;5030348;28;20053;-78
2023/04/26 06:18:57;;;;;;;8.02;4.43;;;;;;;6.28;66.38;100033.63;5030367;28;20077;-80
2023/04/26 06:21:23;;;;;;;11.13;4.43;;;;;;;6.33;66.24;100038.69;5030511;28;20703;-80
2023/04/26 06:23:50;;;;;;;7.22;4.60;;;;;;;6.39;66.43;100038.47;5030479;28;20048;-81
2023/04/26 06:26:16;;;;;;;11.40;4.15;;;;;;;6.44;66.04;100038.31;5030570;28;20046;-79
2023/04/26 06:28:43;;;;;;;9.27;4.28;;;;;;;6.49;66.42;100039.00;5030307;28;20057;-82
2023/04/26 06:31:09;;;;;;;11.32;4.07;;;;;;;6.56;66.30;100035.28;5030726;28;20077;-79
2023/04/26 06:33:36;;;;;;;11.80;4.32;;;;;;;6.64;66.43;100037.59;5030639;28;20132;-81
2023/04/26 06:36:03;;;;;;;6.97;3.95;;;;;;;6.70;66.27;100053.09;5030057;28;20054;-80
2023/04/26 06:38:29;;;;;;;10.35;4.00;;;;;;;6.78;66.44;100050.19;5029244;28;20049;-80
2023/04/26 06:40:55;;;;;;;12.75;4.55;;;;;;;6.84;66.70;100049.94;5030595;28;20060;-78
2023/04/26 06:43:22;;;;;;;10.35;3.80;;;;;;;6.90;66.59;100047.13;5030571;28;20049;-78
2023/04/26 06:45:48;;;;;;;13.93;4.28;;;;;;;6.98;66.50;100051.19;5029825;28;20522;-82
2023/04/26 06:48:15;;;;;;;10.63;4.03;;;;;;;7.05;66.21;100047.47;5030027;28;20100;-80
2023/04/26 06:50:42;;;;;;;10.05;4.43;;;;;;;7.10;66.15;100044.69;5029105;28;20053;-79
2023/04/26 06:53:08;;;;;;;7.18;3.85;;;;;;;7.16;65.97;100047.91;5029138;28;20059;-78
2023/04/26 06:55:34;;;;;;;8.40;3.63;;;;;;;7.22;65.69;100054.66;5032193;28;20095;-79
2023/04/26 06:58:01;;;;;;;7.72;3.15;;;;;;;7.28;65.78;100058.81;5033977;28;20064;-82
2023/04/26 07:00:29;;;;;;;9.10;3.92;;;;;;;7.32;65.66;100052.53;5034304;28;20064;-80
2023/04/26 07:02:55;;;;;;;11.55;4.38;;;;;;;7.37;65.88;100062.84;5032714;28;20498;-83
2023/04/26 07:05:22;;;;;;;7.32;4.15;;;;;;;7.41;65.81;100057.41;5032399;28;20046;-79
2023/04/26 07:07:49;;;;;;;10.35;4.05;;;;;;;7.47;65.88;100058.13;5033489;28;20049;-79
2023/04/26 07:10:16;;;;;;;9.10;3.80;;;;;;;7.53;65.91;100057.88;5034048;28;20140;-83
2023/04/26 07:12:43;;;;;;;10.85;3.63;;;;;;;7.59;65.91;100057.59;5033868;28;20049;-80
2023/04/26 07:15:10;;;;;;;10.85;3.95;;;;;;;7.65;65.63;100053.91;5032206;28;20490;-79
2023/04/26 07:17:36;;;;;;;8.68;3.92;;;;;;;7.71;65.74;100055.41;5033480;28;20046;-80
2023/04/26 07:20:04;;;;;;;9.65;3.25;;;;;;;7.77;66.04;100057.78;5033764;28;20049;-80
2023/04/26 07:22:31;;;;;;;10.10;3.63;;;;;;;7.83;65.88;100065.41;5033870;28;20063;-80
2023/04/26 07:24:57;;;;;;;6.82;2.72;;;;;;;7.91;65.52;100058.09;5033487;28;20080;-79
2023/04/26 07:27:24;;;;;;;6.32;3.00;;;;;;;7.99;65.72;100059.56;5033131;28;20053;-79
2023/04/26 07:29:54;;;;;;;8.90;3.85;;;;;;;8.06;64.81;100058.38;5032365;28;20045;-78
2023/04/26 07:32:21;;;;;;;9.35;3.58;;;;;;;8.16;65.88;100057.09;5033590;28;20045;-83
2023/04/26 07:34:47;;;;;;;6.78;2.63;;;;;;;8.25;65.44;100063.69;5033085;28;20089;-80
2023/04/26 07:37:14;;;;;;;6.13;2.55;;;;;;;8.33;65.14;100061.59;5031907;28;20049;-78
2023/04/26 07:40:03;;;;;;;6.88;2.75;;;;;;;8.39;63.96;100060.47;5110819;22;20096;-81
2023/04/26 07:42:52;;;;;;;5.50;2.20;;;;;;;8.53;64.79;100062.56;4972763;28;20054;-80
2023/04/26 07:45:18;;;;;;;5.57;2.22;;;;;;;8.62;64.45;100058.66;4973718;28;20043;-81
2023/04/26 07:47:45;;;;;;;8.65;2.95;;;;;;;8.69;64.25;100065.34;4974245;28;20046;-80
2023/04/26 07:50:12;;;;;;;9.60;2.63;;;;;;;8.76;64.58;100058.06;4974258;28;20047;-80
2023/04/26 07:52:38;;;;;;;5.38;2.22;;;;;;;8.82;63.68;100059.56;4973100;28;20051;-81
2023/04/26 07:55:05;;;;;;;9.85;2.60;;;;;;;8.88;63.82;100064.53;4973844;28;20106;-81
2023/04/26 07:57:32;;;;;;;6.38;2.50;;;;;;;8.96;64.05;100065.03;4973920;28;20043;-81
2023/04/26 07:59:58;;;;;;;7.20;2.92;;;;;;;9.02;63.83;100063.91;4989009;28;20053;-81
2023/04/26 08:02:25;;;;;;;7.53;2.78;;;;;;;9.10;63.74;100059.16;4974071;28;20102;-79
2023/04/26 08:05:09;;;;;;;6.57;2.45;;;;;;;9.19;63.51;100073.63;4973686;28;20522;-80
2023/04/26 08:07:40;;;;;;;8.85;2.35;;;;;;;9.24;62.76;100063.75;4973534;28;20053;-81
2023/04/26 08:10:07;;;;;;;7.35;2.60;;;;;;;9.34;63.67;100063.31;4988784;28;20638;-81
2023/04/26 08:12:36;;;;;;;7.07;2.60;;;;;;;9.40;63.32;100052.53;4973940;28;20142;-81
2023/04/26 08:15:04;;;;;;;3.63;2.03;;;;;;;9.49;62.81;100057.34;4973538;28;20068;-80
2023/04/26 08:17:31;;;;;;;7.70;2.17;;;;;;;9.57;62.47;100056.13;4973457;28;20462;-80
2023/04/26 08:19:58;;;;;;;8.65;2.67;;;;;;;9.65;62.71;100060.09;4974002;28;20138;-80
2023/04/26 08:22:24;;;;;;;8.80;2.88;;;;;;;9.75;62.20;100060.50;4973681;28;20051;-80
2023/04/26 08:24:54;;;;;;;7.43;2.65;;;;;;;9.85;61.33;100066.16;4973286;28;20054;-81
2023/04/26 08:27:21;;;;;;;4.68;2.33;;;;;;;9.95;61.38;100057.81;4973342;28;20054;-81
2023/04/26 08:29:48;;;;;;;5.70;2.05;;;;;;;10.03;61.69;100056.47;4973432;28;20495;-81
2023/04/26 08:32:14;;;;;;;4.20;1.73;;;;;;;10.13;61.40;100058.69;4973405;28;20055;-80
2023/04/26 08:34:41;;;;;;;4.45;2.00;;;;;;;10.23;61.53;100064.31;4973233;28;20051;-80
2023/04/26 08:37:08;;;;;;;7.72;2.10;;;;;;;10.34;61.20;100058.50;4972887;28;20106;-81
2023/04/26 08:39:34;;;;;;;6.15;2.00;;;;;;;10.45;60.35;100064.09;4973101;28;20066;-81
2023/04/26 08:42:25;;;;;;;6.15;2.45;;;;;;;10.55;57.50;100061.84;4973323;28;20099;-81
2023/04/26 08:44:53;;;;;;;6.20;1.85;;;;;;;10.70;59.37;100065.47;4972991;28;20050;-81
2023/04/26 08:47:36;;;;;;;3.33;1.70;;;;;;;10.77;57.34;100066.00;4972692;28;20047;-80
2023/04/26 08:50:05;;;;;;;4.15;1.70;;;;;;;10.91;59.38;100058.19;4972037;28;20050;-80
2023/04/26 08:52:34;;;;;;;3.22;1.80;;;;;;;11.01;58.60;100060.31;4988004;28;20065;-81
2023/04/26 08:55:04;;;;;;;4.07;1.40;;;;;;;11.14;59.31;100061.34;4972593;28;20125;-80
2023/04/26 08:57:32;;;;;;;3.20;1.80;;;;;;;11.23;58.95;100064.44;4972536;28;20054;-81
2023/04/26 09:00:04;;;;;;;5.20;2.03;;;;;;;11.31;58.00;100065.72;4972846;28;20499;-81
2023/04/26 09:02:31;;;;;;;5.33;2.27;;;;;;;11.37;58.63;100067.19;4987710;28;20058;-80
2023/04/26 09:04:58;;;;;;;6.05;2.30;;;;;;;11.41;58.02;100067.84;4972551;28;20054;-81
2023/04/26 09:07:38;;;;;;;3.45;1.88;;;;;;;11.39;55.69;100072.34;4971973;28;20066;-80
2023/04/26 09:10:05;;;;;;;5.05;2.17;;;;;;;11.40;57.46;100074.06;4972718;28;20066;-80
2023/04/26 09:12:31;;;;;;;5.32;2.15;;;;;;;11.37;56.62;100074.22;4972628;28;20058;-81
2023/04/26 09:14:59;;;;;;;4.78;2.38;;;;;;;11.34;56.55;100073.44;4972025;28;20519;-81
2023/04/26 09:17:30;;;;;;;5.57;1.90;;;;;;;11.30;55.46;100066.66;4971685;28;20046;-81
2023/04/26 09:19:58;;;;;;;9.32;2.58;;;;;;;11.29;56.31;100070.22;4972432;28;20047;-81
2023/04/26 09:22:35;;;;;;;3.90;1.70;;;;;;;11.25;53.97;100068.69;4972433;28;20054;-79
2023/04/26 09:25:04;;;;;;;3.15;2.00;;;;;;;11.27;56.17;100074.72;4970801;28;20062;-81
2023/04/26 09:27:38;;;;;;;7.10;1.83;;;;;;;11.26;54.45;100075.66;4986739;28;20066;-81
2023/04/26 09:30:11;;;;;;;4.40;1.70;;;;;;;11.25;54.11;100076.59;4972430;28;20113;-81
2023/04/26 09:32:48;;;;;;;3.33;1.88;;;;;;;11.21;53.38;100082.94;4972551;28;20059;-80
2023/04/26 09:35:20;;;;;;;2.75;1.73;;;;;;;11.20;54.21;100078.63;4971842;28;20083;-81
2023/04/26 09:37:53;;;;;;;3.83;1.98;;;;;;;11.15;54.45;100078.91;4971830;28;20495;-81
2023/04/26 09:40:29;;;;;;;3.30;1.88;;;;;;;11.13;54.95;100075.47;4971991;28;20097;-81
2023/04/26 09:43:01;;;;;;;3.35;1.60;;;;;;;11.10;54.65;100078.28;4972304;28;20113;-81
2023/04/26 09:45:29;;;;;;;7.43;2.20;;;;;;;11.10;55.80;100080.06;4986818;28;20054;-80
2023/04/26 09:48:13;;;;;;;3.33;1.67;;;;;;;11.05;54.35;100067.13;4971730;28;20046;-81
2023/04/26 09:50:39;;;;;;;4.80;2.05;;;;;;;11.12;56.33;100078.19;4972244;28;20061;-80
2023/04/26 09:53:06;;;;;;;6.25;2.47;;;;;;;11.13;56.29;100079.88;4971935;28;20054;-81
2023/04/26 09:55:33;;;;;;;4.57;2.67;;;;;;;11.16;56.32;100077.09;4970330;28;20125;-81
2023/04/26 09:58:11;;;;;;;5.00;1.70;;;;;;;11.15;55.10;100078.03;4971561;28;20078;-80
2023/04/26 10:00:40;;;;;;;4.90;2.13;;;;;;;11.20;56.63;100078.63;4971753;28;20062;-81
2023/04/26 10:03:08;;;;;;;3.70;2.05;;;;;;;11.23;56.52;100081.09;4986970;28;20050;-80
2023/04/26 10:05:35;;;;;;;6.45;2.28;;;;;;;11.25;56.33;100073.94;4970221;28;20059;-81
2023/04/26 10:08:02;;;;;;;5.90;1.90;;;;;;;11.27;56.67;100069.47;4971469;28;20666;-81
2023/04/26 10:10:30;;;;;;;2.92;1.90;;;;;;;11.32;56.61;100077.09;4971700;28;20051;-81
2023/04/26 10:12:57;;;;;;;8.63;2.53;;;;;;;11.38;56.91;100074.13;4971713;28;20534;-80
2023/04/26 10:15:23;;;;;;;6.68;2.20;;;;;;;11.43;56.64;100069.47;4971226;28;20050;-81
2023/04/26 10:17:50;;;;;;;5.75;2.28;;;;;;;11.51;56.16;100073.47;4971397;28;20061;-81
2023/04/26 10:20:20;;;;;;;4.60;2.50;;;;;;;11.54;55.32;100078.53;4971797;28;20078;-80
2023/04/26 10:22:53;;;;;;;5.40;2.20;;;;;;;11.54;53.95;100075.91;4986506;28;20062;-80
2023/04/26 10:25:20;;;;;;;7.50;2.40;;;;;;;11.56;55.71;100066.97;4971317;28;20054;-81
2023/04/26 10:27:47;;;;;;;3.97;2.10;;;;;;;11.54;55.15;100062.72;4971031;28;20302;-81
2023/04/26 10:30:16;;;;;;;7.57;2.45;;;;;;;11.48;54.67;100069.22;4974974;28;20055;-81
2023/04/26 10:32:54;;;;;;;6.22;2.15;;;;;;;11.38;53.58;100066.22;4975678;28;20176;-80
2023/04/26 10:35:22;;;;;;;6.10;2.17;;;;;;;11.33;54.53;100071.75;4973870;28;20094;-81
2023/04/26 10:38:01;;;;;;;6.68;2.10;;;;;;;11.22;54.10;100060.97;4975086;28;20092;-80
2023/04/26 10:40:37;;;;;;;6.03;2.50;;;;;;;11.10;53.42;100069.53;4975503;28;20451;-81
2023/04/26 10:43:10;;;;;;;4.97;2.22;;;;;;;10.99;53.29;100067.47;4975615;28;20078;-81
2023/04/26 10:45:38;;;;;;;6.78;2.30;;;;;;;10.91;55.21;100065.22;4975287;28;20146;-80
2023/04/26 10:48:16;;;;;;;5.25;2.15;;;;;;;10.78;54.06;100068.53;4975005;28;20090;-80
2023/04/26 10:51:11;;;;;;;3.80;2.00;;;;;;;10.68;54.44;100069.94;4975251;28;20047;-81
2023/04/26 10:53:44;;;;;;;4.13;1.98;;;;;;;10.64;55.31;100069.25;4974818;28;20051;-81
2023/04/26 10:56:31;;;;;;;7.25;2.60;;;;;;;10.59;55.43;100071.28;4974790;28;20058;-81
2023/04/26 10:59:10;;;;;;;3.95;2.10;;;;;;;10.60;56.00;100064.22;4974575;28;20121;-80
2023/04/26 11:01:40;;;;;;;3.22;2.00;;;;;;;10.64;57.01;100065.78;4974979;28;20491;-80
2023/04/26 11:04:08;;;;;;;7.38;2.50;;;;;;;10.69;57.62;100063.75;4975302;28;20074;-80
2023/04/26 11:06:56;;;;;;;7.00;2.67;;;;;;;10.71;54.63;100064.53;4974234;28;20054;-80
2023/04/26 11:09:36;;;;;;;7.90;2.20;;;;;;;10.81;55.37;100063.09;4974942;28;20078;-80
2023/04/26 11:12:04;;;;;;;4.20;2.50;;;;;;;10.93;57.20;100056.34;4974842;28;20487;-80
2023/04/26 11:14:33;;;;;;;4.15;2.55;;;;;;;11.02;57.27;100062.88;4974998;28;20058;-81
2023/04/26 11:17:04;;;;;;;4.32;2.25;;;;;;;11.13;56.05;100058.81;4974136;28;20392;-80
2023/04/26 11:19:31;;;;;;;7.18;2.53;;;;;;;11.24;57.26;100061.72;4974762;28;20097;-80
2023/04/26 11:21:59;;;;;;;3.80;1.90;;;;;;;11.37;57.01;100061.03;4974654;28;20125;-80
2023/04/26 11:24:29;;;;;;;5.53;2.65;;;;;;;11.52;57.16;100054.94;4974838;28;20114;-81
2023/04/26 11:26:57;;;;;;;6.45;2.40;;;;;;;11.75;58.31;100051.91;4973868;28;20455;-78
2023/04/26 11:29:24;;;;;;;6.15;2.92;;;;;;;12.03;58.10;100048.50;4974704;28;20047;-80
2023/04/26 11:31:56;;;;;;;3.45;2.22;;;;;;;12.42;58.83;100046.28;4974616;28;20640;-78
2023/04/26 11:34:35;;;;;;;5.85;2.30;;;;;;;12.85;53.97;100045.44;4974507;28;20133;-81
2023/04/26 11:37:03;;;;;;;3.83;2.10;;;;;;;13.36;58.37;100045.84;4973639;28;20495;-78
2023/04/26 11:39:31;;;;;;;2.80;2.15;;;;;;;13.82;58.07;100044.66;4974565;28;20055;-78